Station: Camden  

  Atmospheric Gas Attenuation - ITU Rec 676-11   ----------------- dB/100km -----------------
Date Time Temp RH % AH g/m3 Dew Point Wind Direction Speed kph Gust kph Barometer mB Rainfall Since 9am 24GHz 47GHz 76GHz 122GHz 134GHz 241GHz
08/05 12:30 19.4 38 6.34 4.7 26 39 1016.8 0 14.6 21.2 29.2 76.1 65.3 223.0
08/05 12:20 19 37 6.03 4 26 30 1017.1 0 13.9 20.9 28.3 73.7 62.1 211.9
08/05 12:10 18.9 37 5.99 3.9 19 24 1017.2 0 13.9 20.8 28.2 73.4 61.8 210.6
08/05 12:00 18.9 39 6.32 4.7 22 35 1017.2 0 14.5 21.3 29.3 76.4 65.5 223.7
08/05 11:50 18.7 40 6.4 4.8 19 24 1017.4 0 14.7 21.5 29.7 77.4 66.6 227.5
08/05 11:40 18.3 39 6.1 4.1 24 28 1017.5 0 14.1 21.1 28.8 75.0 63.5 216.6
08/05 11:30 18.3 40 6.25 4.5 20 33 1017.6 0 14.4 21.3 29.3 76.4 65.2 222.6
08/05 11:20 18.2 40 6.22 4.4 24 30 1017.8 0 14.4 21.3 29.2 76.2 64.9 221.7
08/05 11:10 17.4 42 6.22 4.4 24 26 1018 0 14.4 21.5 29.5 77.0 65.6 223.9
08/05 11:00 17.4 41 6.08 4 22 30 1018.1 0 14.1 21.3 29.0 75.7 64.0 218.3
08/05 10:50 17.5 42 6.26 4.5 26 32 1018.1 0 14.5 21.6 29.6 77.3 66.0 225.3
08/05 10:40 17.4 41 6.08 4 33 37 1018.1 0 14.1 21.3 29.0 75.7 64.0 218.3
08/05 10:30 17.4 43 6.37 4.7 28 39 1018.4 0 14.7 21.7 30.1 78.4 67.4 230.1
08/05 10:20 16.9 44 6.33 4.6 20 24 1018.5 0 14.6 21.8 30.1 78.6 67.3 229.9
08/05 10:10 16.7 43 6.11 4.1 28 32 1018.6 0 14.2 21.5 29.4 76.7 64.9 221.5
08/05 10:00 16.7 45 6.39 4.7 20 35 1018.6 0 14.8 21.9 30.4 79.3 68.2 232.9
08/05 09:50 16.4 45 6.28 4.4 24 28 1018.7 0 14.6 21.9 30.1 78.6 67.2 229.3
08/05 09:40 15.8 45 6.06 3.9 20 26 1018.6 0 14.1 21.7 29.6 77.1 65.1 221.9
08/05 09:30 15.6 47 6.25 4.3 22 33 1018.5 0 14.5 22.0 30.3 79.1 67.5 230.3
08/05 09:20 15.7 47 6.29 4.4 19 20 1018.4 0 14.6 22.0 30.4 79.3 67.9 231.6
08/05 09:10 15.3 48 6.27 4.4 19 22 1018.4 0 14.6 22.1 30.5 79.5 68.0 231.9
08/05 09:00 15 48 6.15 4.1 20 30 1018.4 0 14.3 22.0 30.2 78.7 66.8 227.8
08/05 08:50 14.7 49 6.17 4.1 26 28 1018.4 0 14.4 22.1 30.4 79.2 67.3 229.5
08/05 08:40 14.4 51 6.3 4.4 17 20 1018.4 0 14.7 22.4 30.9 80.7 69.1 235.8
08/05 08:30 13.8 51 6.08 3.9 15 24 1018.4 0 14.2 22.2 30.4 79.2 67.0 228.2
08/05 08:20 13.6 52 6.12 3.9 11 13 1018.4 0 14.3 22.3 30.6 79.8 67.6 230.5
08/05 08:10 13.3 53 6.12 3.9 13 15 1018.3 0 14.3 22.4 30.7 80.0 67.9 231.3
08/05 08:00 12.9 54 6.09 3.8 13 20 1018.2 0 14.3 22.4 30.7 80.1 67.8 231.2
08/05 07:50 12.4 55 6.01 3.6 13 15 1018.1 0 14.1 22.4 30.6 79.8 67.3 229.2
08/05 07:40 12.2 56 6.04 3.7 13 15 1018 0 14.2 22.5 30.8 80.3 67.8 231.0
08/05 07:30 11.5 59 6.1 3.8 15 22 1017.9 0 14.4 22.8 31.3 81.6 69.1 235.6
08/05 07:20 11 61 6.11 3.8 13 17 1017.9 0 14.4 22.9 31.5 82.2 69.7 237.5
08/05 07:10 10.5 61 5.92 3.3 13 15 1018 0 14.0 22.7 31.0 80.8 67.8 230.7
08/05 07:00 10.2 62 5.9 3.3 15 20 1017.9 0 14.0 22.8 31.0 80.9 67.8 230.6
08/05 06:50 10.3 61 5.84 3.1 6 11 1018 0 13.8 22.7 30.8 80.2 67.0 227.7
08/05 06:40 10.3 59 5.65 2.7 0 2 1018.1 0 13.4 22.4 30.1 78.3 64.6 219.5
08/05 06:30 10.1 61 5.77 2.9 13 19 1018.1 0 13.7 22.6 30.6 79.7 66.3 225.3
08/05 06:20 10.2 59 5.62 2.6 11 13 1018.1 0 13.4 22.4 30.0 78.1 64.3 218.4
08/05 06:10 10.5 58 5.63 2.6 11 13 1018 0 13.4 22.3 29.9 77.9 64.2 218.0
08/05 06:00 10 59 5.55 2.4 15 20 1017.9 0 13.2 22.3 29.8 77.6 63.6 215.9
08/05 05:50 10.5 58 5.63 2.6 19 20 1018 0 13.4 22.3 29.9 77.9 64.2 218.0
08/05 05:40 10.8 56 5.54 2.4 17 20 1018 0 13.2 22.1 29.5 76.7 62.8 213.3
08/05 05:30 9.9 58 5.42 2 11 20 1017.8 0 13.0 22.1 29.3 76.4 62.1 210.5
08/05 05:20 9.9 58 5.42 2 11 13 1017.8 0 13.0 22.1 29.3 76.4 62.1 210.5
08/05 05:10 10 57 5.36 1.9 13 15 1017.9 0 12.8 22.0 29.1 75.7 61.2 207.7
08/05 05:00 10.3 57 5.46 2.2 13 28 1017.8 0 13.0 22.1 29.3 76.4 62.2 211.2
08/05 04:50 10.3 57 5.46 2.2 15 19 1017.9 0 13.0 22.1 29.3 76.4 62.2 211.2
08/05 04:40 9.8 58 5.38 1.9 11 13 1017.9 0 12.9 22.1 29.2 76.1 61.6 209.1
08/05 04:30 9.5 60 5.46 2.1 11 15 1017.8 0 13.1 22.3 29.6 77.2 62.9 213.3
08/05 04:20 9.7 59 5.44 2.1 13 15 1017.9 0 13.0 22.2 29.5 76.8 62.5 211.9
08/05 04:10 9.5 59 5.37 1.9 7 9 1018.1 0 12.9 22.2 29.3 76.3 61.8 209.4
08/05 04:00 9.6 58 5.31 1.8 11 20 1017.7 0 12.7 22.0 29.0 75.6 60.9 206.5
08/05 03:50 9.9 58 5.42 2 17 22 1017.8 0 13.0 22.1 29.3 76.4 62.1 210.5
08/05 03:40 9.5 58 5.28 1.7 9 11 1017.8 0 12.7 22.0 29.0 75.4 60.6 205.5
08/05 03:30 9.7 58 5.35 1.8 13 24 1017.8 0 12.8 22.1 29.1 75.9 61.4 208.0
08/05 03:20 9.8 57 5.29 1.7 13 15 1018.2 0 12.7 22.0 28.9 75.2 60.6 205.2
08/05 03:10 9.8 57 5.29 1.7 11 13 1018.5 0 12.7 22.0 28.9 75.2 60.6 205.3
08/05 03:00 9.8 57 5.29 1.7 17 28 1018.5 0 12.7 22.0 28.9 75.2 60.6 205.3
08/05 02:50 9.4 58 5.25 1.6 11 15 1018.5 0 12.6 22.0 28.9 75.2 60.4 204.6
08/05 02:40 9.9 57 5.32 1.8 17 20 1018.6 0 12.8 22.0 29.0 75.5 60.9 206.3
08/05 02:30 9.4 59 5.34 1.8 13 19 1018.6 0 12.8 22.2 29.2 76.1 61.5 208.5
08/05 02:20 9.5 57 5.19 1.4 9 11 1018.6 0 12.5 21.9 28.7 74.5 59.6 201.7
08/05 02:10 9.4 57 5.16 1.3 9 11 1018.7 0 12.4 21.9 28.6 74.3 59.3 200.7
08/05 02:00 9.8 56 5.2 1.5 13 20 1018.7 0 12.5 21.8 28.6 74.4 59.5 201.4
08/05 01:50 9.5 56 5.1 1.2 11 13 1018.7 0 12.3 21.8 28.3 73.7 58.5 197.9
08/05 01:40 9.6 56 5.13 1.3 13 13 1018.8 0 12.4 21.8 28.4 73.9 58.8 198.9
08/05 01:30 10 54 5.08 1.1 20 30 1018.8 0 12.2 21.6 28.1 73.0 57.9 195.8
08/05 01:20 10 54 5.08 1.1 19 24 1019.1 0 12.2 21.6 28.1 73.0 57.9 195.9
08/05 01:10 10 53 4.98 0.9 19 20 1019.1 0 12.0 21.5 27.7 72.1 56.7 191.6
08/05 01:00 10 53 4.98 0.9 20 32 1019.2 0 12.0 21.5 27.7 72.1 56.7 191.6
08/05 00:50 9.9 53 4.95 0.8 22 26 1019.3 0 12.0 21.5 27.7 71.9 56.4 190.6
08/05 00:40 9.9 53 4.95 0.8 26 39 1019.2 0 12.0 21.5 27.7 71.9 56.4 190.6
08/05 00:20 9.7 53 4.89 0.6 22 26 1019.6 0 11.8 21.4 27.5 71.5 55.8 188.6
08/05 00:10 9.9 51 4.76 0.3 24 32 1019.6 0 11.6 21.2 27.0 70.0 54.1 182.6
08/05 00:00 9.8 51 4.73 0.2 22 37 1019.5 0 11.5 21.2 26.9 69.8 53.8 181.5
07/05 23:50 9.7 51 4.7 0.1 22 28 1019.5 0 11.4 21.2 26.8 69.6 53.5 180.5
07/05 23:40 9.9 51 4.76 0.3 22 28 1019.4 0 11.6 21.2 27.0 70.0 54.1 182.6
07/05 23:30 9.4 52 4.7 0.1 15 22 1019.5 0 11.4 21.2 26.9 69.9 53.7 181.2
07/05 23:20 9 53 4.67 -0.1 15 20 1019.5 0 11.4 21.3 26.9 69.9 53.6 180.8
07/05 23:10 9.4 51 4.61 -0.2 9 13 1019.5 0 11.3 21.1 26.6 69.0 52.7 177.4
07/05 23:00 9.2 51 4.56 -0.4 7 13 1019.5 0 11.2 21.1 26.5 68.7 52.2 175.7
07/05 22:50 9.3 51 4.58 -0.3 2 4 1019.4 0 11.2 21.1 26.5 68.8 52.4 176.3
07/05 22:40 9.2 51 4.56 -0.4 4 6 1019.4 0 11.2 21.1 26.5 68.7 52.2 175.7
07/05 22:30 9.8 49 4.55 -0.4 9 13 1019.5 0 11.1 20.9 26.2 68.1 51.7 174.0
07/05 22:20 9.6 50 4.58 -0.3 9 11 1019.5 0 11.2 21.0 26.4 68.5 52.2 175.7
07/05 22:10 10.3 48 4.6 -0.2 7 9 1019.6 0 11.2 20.9 26.3 68.2 52.0 175.0
07/05 22:00 10.1 49 4.63 -0.1 13 20 1019.8 0 11.3 21.0 26.4 68.6 52.4 176.7
07/05 21:50 9.8 50 4.64 -0.1 13 15 1019.8 0 11.3 21.1 26.6 69.0 52.8 177.8
07/05 21:40 9.6 51 4.67 0 17 20 1019.7 0 11.4 21.1 26.8 69.4 53.3 179.5
07/05 21:30 9.6 51 4.67 0 15 20 1019.7 0 11.4 21.1 26.8 69.4 53.3 179.5
07/05 21:20 10 49 4.61 -0.2 17 22 1019.6 0 11.2 21.0 26.4 68.5 52.3 176.1
07/05 21:10 10 49 4.61 -0.2 19 22 1019.6 0 11.2 21.0 26.4 68.5 52.3 176.1
07/05 21:00 10.3 48 4.6 -0.2 17 28 1019.3 0 11.2 20.9 26.3 68.1 51.9 175.0
07/05 20:50 10.1 48 4.54 -0.4 17 20 1019.3 0 11.1 20.8 26.1 67.7 51.4 172.9
07/05 20:40 10.3 47 4.5 -0.5 11 11 1019.3 0 11.0 20.7 25.9 67.2 50.8 170.8
07/05 20:30 10.4 47 4.53 -0.4 17 26 1019.2 0 11.1 20.7 26.0 67.4 51.0 171.8
07/05 20:20 10.5 46 4.46 -0.6 15 17 1019.2 0 10.9 20.6 25.7 66.6 50.2 168.7
07/05 20:10 10.6 45 4.39 -0.8 19 26 1019.2 0 10.8 20.5 25.4 65.9 49.3 165.6
07/05 20:00 10.9 44 4.38 -0.9 19 33 1019.1 0 10.7 20.4 25.3 65.5 49.0 164.6
07/05 19:50 10.8 44 4.35 -0.9 17 20 1019 0 10.7 20.4 25.2 65.3 48.7 163.6

Last Refresh: 08-May-2026 12:08:27

Bureau of Meteorology